Time;durP1;ratioP1;P1;durP2;ratioP2;P2;SDS_P1;SDS_P2;PMS_P1;PMS_P2;Temp;Humidity;BMP_temperature;BMP_pressure;BME280_temperature;BME280_humidity;BME280_pressure;Samples;Min_cycle;Max_cycle;Signal;HPM_P1;HPM_P2
2021/05/04 00:00:07;;;;;;;3.67;2.15;;;10.20;61.90;;;;;;5017564;28;20054;-74
2021/05/04 00:02:35;;;;;;;4.45;1.80;;;10.20;61.90;;;;;;5031943;28;20026;-74
2021/05/04 00:05:02;;;;;;;3.97;1.95;;;10.20;62.20;;;;;;5017111;28;20022;-74
2021/05/04 00:07:30;;;;;;;5.85;1.90;;;10.20;62.70;;;;;;5016698;28;20109;-74
2021/05/04 00:09:58;;;;;;;3.80;2.13;;;10.20;62.60;;;;;;5016554;28;20033;-74
2021/05/04 00:12:26;;;;;;;3.50;1.80;;;10.20;62.40;;;;;;5015440;28;20026;-74
2021/05/04 00:14:53;;;;;;;3.83;2.05;;;10.20;62.50;;;;;;5016767;28;20036;-74
2021/05/04 00:17:22;;;;;;;7.55;2.15;;;10.10;62.80;;;;;;5042455;28;20505;-75
2021/05/04 00:19:50;;;;;;;4.95;2.33;;;10.10;62.80;;;;;;5056556;28;20040;-75
2021/05/04 00:22:18;;;;;;;3.65;2.22;;;10.10;62.80;;;;;;5056050;28;20028;-75
2021/05/04 00:24:46;;;;;;;3.88;2.00;;;10.10;63.00;;;;;;5057455;28;20025;-75
2021/05/04 00:27:13;;;;;;;4.60;2.08;;;10.10;63.30;;;;;;5057129;28;20075;-74
2021/05/04 00:29:41;;;;;;;4.75;2.03;;;10.10;63.00;;;;;;5056858;28;20082;-75
2021/05/04 00:32:09;;;;;;;5.20;2.50;;;10.10;63.30;;;;;;5039242;28;20033;-75
2021/05/04 00:34:37;;;;;;;6.78;2.55;;;10.10;63.30;;;;;;5056839;28;20032;-75
2021/05/04 00:37:04;;;;;;;3.58;2.05;;;10.10;63.20;;;;;;5039324;28;20332;-75
2021/05/04 00:39:36;;;;;;;3.08;1.92;;;10.10;63.50;;;;;;5039187;28;20328;-75
2021/05/04 00:42:05;;;;;;;3.58;1.63;;;10.10;63.40;;;;;;5056813;28;20093;-75
2021/05/04 00:44:33;;;;;;;7.10;2.60;;;10.10;63.40;;;;;;5038372;28;20321;-75
2021/05/04 00:47:00;;;;;;;4.60;2.33;;;10.10;63.50;;;;;;5056025;28;20017;-75
2021/05/04 00:49:28;;;;;;;3.70;2.33;;;10.10;64.00;;;;;;5058551;28;20510;-74
2021/05/04 00:51:56;;;;;;;5.30;1.67;;;10.10;63.70;;;;;;5059516;28;20413;-75
2021/05/04 00:54:24;;;;;;;3.85;1.92;;;10.10;63.70;;;;;;5059497;28;20417;-75
2021/05/04 00:56:55;;;;;;;4.50;2.47;;;10.10;63.80;;;;;;5059673;28;20033;-75
2021/05/04 00:59:24;;;;;;;6.35;2.17;;;10.10;63.80;;;;;;5059291;28;20053;-75
2021/05/04 01:01:56;;;;;;;5.95;2.20;;;10.10;63.90;;;;;;5059412;28;20105;-75
2021/05/04 01:04:24;;;;;;;5.28;2.08;;;10.10;64.00;;;;;;5059845;28;20095;-75
2021/05/04 01:06:52;;;;;;;4.35;2.60;;;10.10;63.80;;;;;;5060337;28;20068;-75
2021/05/04 01:09:20;;;;;;;3.63;2.20;;;10.10;63.90;;;;;;5060430;28;20017;-75
2021/05/04 01:11:48;;;;;;;4.30;2.10;;;10.10;64.10;;;;;;5060126;28;20025;-75
2021/05/04 01:14:16;;;;;;;5.07;2.28;;;10.10;64.20;;;;;;5060037;28;20417;-75
2021/05/04 01:16:55;;;;;;;4.82;2.15;;;10.10;64.10;;;;;;5059902;28;20049;-75
2021/05/04 01:19:24;;;;;;;4.78;2.58;;;10.10;63.70;;;;;;5042255;28;20025;-75
2021/05/04 01:21:51;;;;;;;3.72;2.42;;;10.10;63.70;;;;;;5059916;28;20421;-75
2021/05/04 01:24:20;;;;;;;9.75;2.70;;;10.10;64.00;;;;;;5059674;28;20071;-75
2021/05/04 01:26:49;;;;;;;4.53;2.40;;;10.20;63.80;;;;;;5059317;28;20021;-75
2021/05/04 01:29:17;;;;;;;3.97;2.25;;;10.20;63.70;;;;;;5058827;28;20028;-75
2021/05/04 01:31:44;;;;;;;5.95;2.33;;;10.20;63.90;;;;;;5059336;28;20066;-75
2021/05/04 01:34:13;;;;;;;5.10;2.63;;;10.20;63.50;;;;;;5058695;28;20021;-75
2021/05/04 01:36:41;;;;;;;5.28;2.45;;;10.20;63.80;;;;;;5059113;28;20021;-75
2021/05/04 01:39:10;;;;;;;5.25;2.78;;;10.20;63.80;;;;;;5058561;28;20063;-75
2021/05/04 01:41:39;;;;;;;5.28;2.83;;;10.20;63.70;;;;;;5059197;28;20028;-75
2021/05/04 01:44:09;;;;;;;5.88;2.78;;;10.30;63.50;;;;;;5058568;28;20320;-75
2021/05/04 01:46:37;;;;;;;6.35;2.50;;;10.20;63.60;;;;;;5058771;28;20031;-75
2021/05/04 01:49:07;;;;;;;3.70;2.20;;;10.30;63.40;;;;;;5059893;28;20304;-75
2021/05/04 01:51:38;;;;;;;5.25;2.90;;;10.30;63.60;;;;;;5059293;28;20354;-75
2021/05/04 01:54:05;;;;;;;4.78;2.40;;;10.30;63.70;;;;;;5059222;28;20017;-75
2021/05/04 01:56:33;;;;;;;5.72;2.72;;;10.30;63.50;;;;;;5042050;28;20048;-75
2021/05/04 01:59:03;;;;;;;4.28;2.42;;;10.30;63.60;;;;;;5059212;28;20017;-75
2021/05/04 02:01:31;;;;;;;5.97;2.60;;;10.30;63.60;;;;;;5058589;28;20033;-75
2021/05/04 02:04:01;;;;;;;5.93;2.65;;;10.30;63.90;;;;;;5041424;28;20474;-75
2021/05/04 02:06:29;;;;;;;5.10;2.20;;;10.30;63.70;;;;;;5058489;28;20021;-75
2021/05/04 02:08:57;;;;;;;4.20;2.28;;;10.30;63.70;;;;;;5058108;28;20359;-75
2021/05/04 02:11:25;;;;;;;4.15;2.17;;;10.30;63.30;;;;;;5058089;28;20024;-75
2021/05/04 02:13:53;;;;;;;6.93;2.75;;;10.40;63.20;;;;;;5058529;28;20029;-75
2021/05/04 02:16:20;;;;;;;5.72;2.38;;;10.40;63.30;;;;;;5057815;28;20315;-75
2021/05/04 02:18:48;;;;;;;3.92;2.15;;;10.40;63.80;;;;;;5057902;28;20021;-75
2021/05/04 02:21:17;;;;;;;4.55;2.45;;;10.40;62.90;;;;;;5057736;28;20025;-75
2021/05/04 02:23:45;;;;;;;4.30;2.53;;;10.50;63.10;;;;;;5057671;28;20017;-74
2021/05/04 02:26:14;;;;;;;6.95;2.33;;;10.50;63.00;;;;;;5057943;28;20066;-75
2021/05/04 02:28:42;;;;;;;6.63;2.50;;;10.50;63.10;;;;;;5058311;28;20098;-75
2021/05/04 02:31:09;;;;;;;5.97;2.65;;;10.50;63.00;;;;;;5058702;28;20017;-75
2021/05/04 02:33:37;;;;;;;5.78;2.53;;;10.60;62.70;;;;;;5058528;28;20053;-75
2021/05/04 02:36:06;;;;;;;3.08;1.90;;;10.60;62.70;;;;;;5058677;28;20021;-75
2021/05/04 02:38:34;;;;;;;5.68;2.38;;;10.60;62.30;;;;;;5058472;28;20102;-75
2021/05/04 02:41:03;;;;;;;4.93;2.40;;;10.60;62.80;;;;;;5058295;28;20025;-75
2021/05/04 02:43:31;;;;;;;5.00;2.25;;;10.60;62.50;;;;;;5058624;28;20017;-75
2021/05/04 02:45:58;;;;;;;5.05;2.45;;;10.60;62.70;;;;;;5058307;28;20017;-75
2021/05/04 02:48:26;;;;;;;4.65;2.90;;;10.60;62.80;;;;;;5039700;28;20117;-75
2021/05/04 02:50:54;;;;;;;7.47;2.85;;;10.60;62.80;;;;;;5057343;28;20096;-75
2021/05/04 02:53:23;;;;;;;5.30;2.40;;;10.60;63.10;;;;;;5057203;28;20024;-75
2021/05/04 02:55:53;;;;;;;4.97;2.58;;;10.60;63.00;;;;;;5057245;28;20029;-75
2021/05/04 02:58:31;;;;;;;3.50;2.13;;;10.60;62.90;;;;;;5039437;28;20028;-75
2021/05/04 03:00:59;;;;;;;8.25;2.30;;;10.60;63.30;;;;;;5057116;28;20028;-75
2021/05/04 03:03:27;;;;;;;4.75;2.70;;;10.60;63.40;;;;;;5057100;28;20112;-75
2021/05/04 03:05:55;;;;;;;6.75;2.65;;;10.50;63.70;;;;;;5057208;28;20056;-75
2021/05/04 03:08:24;;;;;;;3.85;2.00;;;10.50;63.60;;;;;;5056964;28;20025;-75
2021/05/04 03:10:52;;;;;;;5.88;2.47;;;10.50;63.30;;;;;;5057709;28;20079;-75
2021/05/04 03:13:27;;;;;;;5.90;2.50;;;10.60;63.70;;;;;;5057857;28;20052;-75
2021/05/04 03:15:55;;;;;;;10.37;3.13;;;10.60;63.80;;;;;;5057518;28;20024;-75
2021/05/04 03:18:23;;;;;;;4.65;2.50;;;10.60;64.00;;;;;;5058012;28;20025;-75
2021/05/04 03:20:52;;;;;;;5.32;2.45;;;10.50;63.80;;;;;;5039996;28;20029;-75
2021/05/04 03:23:24;;;;;;;3.78;2.08;;;10.50;63.80;;;;;;5057990;28;20108;-75
2021/05/04 03:25:51;;;;;;;5.65;2.47;;;10.60;64.00;;;;;;5057620;28;20078;-75
2021/05/04 03:28:20;;;;;;;4.28;1.85;;;10.50;63.90;;;;;;5058094;28;20017;-75
2021/05/04 03:30:47;;;;;;;7.07;1.60;;;10.60;63.80;;;;;;5039096;28;20032;-75
2021/05/04 03:33:15;;;;;;;4.18;2.17;;;10.60;63.80;;;;;;5056692;28;20025;-75
2021/05/04 03:35:43;;;;;;;4.82;2.55;;;10.60;64.10;;;;;;5056564;28;20040;-75
2021/05/04 03:38:11;;;;;;;6.28;2.65;;;10.60;64.20;;;;;;5056557;28;20100;-75
2021/05/04 03:40:39;;;;;;;4.97;2.17;;;10.60;64.50;;;;;;5056578;28;20025;-75
2021/05/04 03:43:06;;;;;;;4.80;2.55;;;10.60;65.40;;;;;;5038961;28;20417;-75
2021/05/04 03:45:34;;;;;;;4.90;2.22;;;10.60;66.20;;;;;;5056677;28;20021;-75
2021/05/04 03:48:02;;;;;;;4.15;2.33;;;10.50;67.00;;;;;;5056405;28;20032;-75
2021/05/04 03:50:32;;;;;;;4.03;2.38;;;10.40;68.00;;;;;;5056407;28;20425;-75
2021/05/04 03:53:00;;;;;;;3.28;1.90;;;10.30;69.20;;;;;;5057033;28;20053;-75
2021/05/04 03:55:28;;;;;;;4.20;2.10;;;10.20;70.30;;;;;;5057502;28;20025;-75
2021/05/04 03:57:55;;;;;;;4.60;1.80;;;10.10;71.20;;;;;;5040073;28;20324;-75
2021/05/04 04:00:23;;;;;;;5.03;2.10;;;10.00;70.90;;;;;;5057016;28;20029;-75
2021/05/04 04:02:52;;;;;;;4.05;1.60;;;9.90;71.20;;;;;;5057572;28;20082;-75
2021/05/04 04:05:20;;;;;;;3.53;2.00;;;9.80;72.50;;;;;;5057104;28;20025;-75
2021/05/04 04:07:48;;;;;;;2.53;1.40;;;9.80;72.70;;;;;;5057057;28;20029;-74
2021/05/04 04:10:16;;;;;;;3.25;1.75;;;9.80;71.40;;;;;;5057630;28;20405;-74
2021/05/04 04:12:44;;;;;;;2.58;1.65;;;9.80;73.20;;;;;;5057071;28;20033;-74
2021/05/04 04:15:13;;;;;;;3.15;1.90;;;9.70;72.80;;;;;;5056191;28;20021;-74
2021/05/04 04:17:40;;;;;;;3.67;1.50;;;9.70;73.00;;;;;;5055863;28;20101;-74
2021/05/04 04:20:08;;;;;;;3.22;1.83;;;9.70;72.70;;;;;;5056013;28;20032;-74
2021/05/04 04:22:38;;;;;;;4.75;1.75;;;9.70;73.60;;;;;;5056202;28;20028;-74
2021/05/04 04:25:07;;;;;;;2.78;1.60;;;9.70;72.70;;;;;;5059690;28;20021;-74
2021/05/04 04:27:34;;;;;;;4.07;1.80;;;9.70;73.50;;;;;;5060035;28;20154;-74
2021/05/04 04:30:02;;;;;;;6.15;2.05;;;9.70;74.50;;;;;;5060002;28;20017;-74
2021/05/04 04:32:30;;;;;;;2.22;1.63;;;9.70;75.10;;;;;;5059936;28;20028;-76
2021/05/04 04:34:57;;;;;;;4.50;2.13;;;9.60;75.80;;;;;;5061046;28;20017;-74
2021/05/04 04:37:25;;;;;;;3.60;1.92;;;9.50;76.90;;;;;;5042972;28;20028;-74
2021/05/04 04:39:53;;;;;;;3.03;1.77;;;9.50;77.10;;;;;;5060611;28;20032;-73
2021/05/04 04:42:21;;;;;;;3.47;1.70;;;9.40;78.20;;;;;;5042969;28;20021;-74
2021/05/04 04:44:49;;;;;;;3.25;2.03;;;9.40;78.30;;;;;;5060549;28;20021;-73
2021/05/04 04:47:16;;;;;;;5.85;1.42;;;9.30;78.70;;;;;;5060692;28;20024;-73
2021/05/04 04:49:44;;;;;;;3.30;1.90;;;9.20;80.40;;;;;;5060520;28;20033;-73
2021/05/04 04:52:11;;;;;;;3.97;2.30;;;9.20;81.80;;;;;;5060180;28;20025;-73
2021/05/04 04:54:38;;;;;;;2.40;1.38;;;9.10;83.90;;;;;;5059791;28;20483;-73
2021/05/04 04:57:07;;;;;;;4.97;1.58;;;9.00;85.90;;;;;;5059558;28;20116;-73
2021/05/04 04:59:35;;;;;;;4.90;1.50;;;8.90;87.80;;;;;;5059340;28;20025;-74
2021/05/04 05:02:03;;;;;;;2.63;1.35;;;8.80;90.00;;;;;;5059942;28;20029;-73
2021/05/04 05:04:31;;;;;;;6.38;2.00;;;8.70;90.50;;;;;;5059280;28;20110;-73
2021/05/04 05:07:05;;;;;;;3.85;1.60;;;8.60;92.10;;;;;;5059656;28;20013;-74
2021/05/04 05:09:36;;;;;;;3.03;1.13;;;8.50;94.70;;;;;;5059235;28;20021;-74
2021/05/04 05:12:07;;;;;;;3.50;1.83;;;8.50;97.50;;;;;;5059047;28;20074;-72
2021/05/04 05:14:38;;;;;;;3.25;1.58;;;8.40;99.70;;;;;;5059470;28;20051;-80
2021/05/04 05:17:09;;;;;;;3.03;1.73;;;8.30;99.90;;;;;;5038913;28;20075;-77
2021/05/04 05:19:37;;;;;;;3.25;1.52;;;8.20;99.90;;;;;;5038668;28;20034;-77
2021/05/04 05:22:06;;;;;;;3.60;1.70;;;8.20;99.90;;;;;;5040078;28;20022;-75
2021/05/04 05:24:34;;;;;;;2.60;1.55;;;8.20;99.90;;;;;;5040472;28;20370;-79
2021/05/04 05:27:03;;;;;;;4.95;1.80;;;8.20;99.90;;;;;;5040264;28;20021;-76
2021/05/04 05:29:34;;;;;;;3.15;1.42;;;8.20;99.90;;;;;;5039881;28;20041;-73
2021/05/04 05:32:03;;;;;;;3.42;1.83;;;8.10;99.90;;;;;;5040333;28;20022;-73
2021/05/04 05:34:31;;;;;;;3.42;2.15;;;8.10;99.90;;;;;;5039014;28;20026;-73
2021/05/04 05:36:58;;;;;;;3.03;1.88;;;8.10;99.90;;;;;;5037608;28;20044;-73
2021/05/04 05:39:25;;;;;;;4.03;1.90;;;8.00;99.90;;;;;;5038078;28;20025;-75
2021/05/04 05:41:53;;;;;;;3.50;2.05;;;8.00;99.90;;;;;;5039285;28;20022;-75
2021/05/04 05:44:21;;;;;;;4.15;1.90;;;8.00;99.90;;;;;;5038908;28;20029;-74
2021/05/04 05:46:51;;;;;;;2.53;1.60;;;8.00;99.90;;;;;;5038787;28;20071;-73
2021/05/04 05:49:19;;;;;;;3.25;1.85;;;8.00;99.90;;;;;;5038581;28;20418;-76
2021/05/04 05:51:46;;;;;;;3.33;1.85;;;8.00;99.90;;;;;;5038773;28;20429;-75
2021/05/04 05:54:15;;;;;;;4.50;1.80;;;8.00;99.90;;;;;;5038428;28;20025;-73
2021/05/04 05:56:43;;;;;;;2.50;1.65;;;8.10;99.90;;;;;;5021780;28;20021;-74
2021/05/04 05:59:11;;;;;;;4.43;1.73;;;8.20;99.90;;;;;;5039868;28;20013;-74
2021/05/04 06:01:39;;;;;;;3.35;1.88;;;8.20;99.90;;;;;;5039261;28;20410;-74
2021/05/04 06:04:07;;;;;;;5.57;2.00;;;8.20;99.90;;;;;;5039174;28;20322;-77
2021/05/04 06:06:35;;;;;;;2.75;1.73;;;8.30;99.90;;;;;;5039096;28;20321;-76
2021/05/04 06:09:03;;;;;;;3.25;1.85;;;8.30;99.90;;;;;;5039420;28;20025;-76
2021/05/04 06:11:30;;;;;;;3.45;1.50;;;8.30;99.90;;;;;;5039328;28;20028;-76
2021/05/04 06:13:58;;;;;;;4.07;1.73;;;8.30;99.90;;;;;;5037956;28;20523;-76
2021/05/04 06:16:26;;;;;;;3.03;1.50;;;8.40;99.90;;;;;;5043033;28;20048;-77
2021/05/04 06:18:54;;;;;;;2.40;1.42;;;8.40;99.90;;;;;;5058192;28;20047;-74
2021/05/04 06:21:21;;;;;;;4.28;1.80;;;8.50;99.90;;;;;;5057926;28;20033;-72
2021/05/04 06:23:51;;;;;;;5.00;1.52;;;8.50;99.90;;;;;;5058413;28;20021;-74
2021/05/04 06:26:19;;;;;;;2.85;1.40;;;8.60;99.90;;;;;;5058388;28;20096;-74
2021/05/04 06:28:49;;;;;;;3.22;1.15;;;8.60;99.90;;;;;;5040537;28;20413;-74
2021/05/04 06:31:20;;;;;;;3.65;1.13;;;8.60;99.90;;;;;;5058029;28;20032;-74
2021/05/04 06:33:59;;;;;;;1.70;0.80;;;8.60;99.90;;;;;;5057555;28;20028;-75
2021/05/04 06:36:27;;;;;;;3.70;1.13;;;8.60;99.90;;;;;;5057836;28;20037;-75
2021/05/04 06:38:54;;;;;;;3.92;1.30;;;8.60;99.90;;;;;;5058130;28;20325;-75
2021/05/04 06:41:22;;;;;;;1.98;1.27;;;8.60;99.90;;;;;;5058747;28;20017;-74
2021/05/04 06:43:50;;;;;;;2.20;1.20;;;8.60;99.90;;;;;;5058333;28;20017;-75
2021/05/04 06:46:18;;;;;;;4.20;1.60;;;8.50;99.90;;;;;;5058388;28;20017;-75
2021/05/04 06:48:45;;;;;;;2.55;1.45;;;8.50;99.90;;;;;;5058837;28;20313;-75
2021/05/04 06:51:13;;;;;;;4.38;1.35;;;8.50;99.90;;;;;;5040935;28;20040;-74
2021/05/04 06:53:41;;;;;;;2.17;1.42;;;8.50;99.90;;;;;;5058528;28;20329;-74
2021/05/04 06:56:08;;;;;;;5.75;1.65;;;8.60;99.90;;;;;;5041528;28;20025;-73
2021/05/04 06:58:36;;;;;;;2.95;1.50;;;8.60;99.90;;;;;;5041451;28;20028;-77
2021/05/04 07:01:04;;;;;;;2.63;1.20;;;8.70;99.90;;;;;;5057977;28;20035;-77
2021/05/04 07:03:32;;;;;;;2.25;1.35;;;8.90;99.90;;;;;;5057948;28;20421;-73
2021/05/04 07:06:00;;;;;;;2.00;1.10;;;9.10;99.90;;;;;;5039965;28;20071;-73
2021/05/04 07:08:28;;;;;;;2.50;1.30;;;9.30;99.90;;;;;;5057879;28;20036;-72
2021/05/04 07:10:57;;;;;;;3.92;1.08;;;9.40;99.90;;;;;;5058005;28;20021;-73
2021/05/04 07:13:25;;;;;;;3.40;1.20;;;9.50;99.90;;;;;;5039616;28;20168;-72
2021/05/04 07:15:52;;;;;;;3.65;1.35;;;9.60;99.90;;;;;;5039099;28;20025;-74
2021/05/04 07:18:24;;;;;;;1.73;0.80;;;9.50;99.90;;;;;;5016890;28;20037;-72
2021/05/04 07:20:52;;;;;;;2.28;1.20;;;9.50;99.90;;;;;;5017033;28;20029;-74
2021/05/04 07:23:21;;;;;;;2.60;1.10;;;9.30;99.90;;;;;;5017090;28;20053;-75
2021/05/04 07:25:49;;;;;;;3.13;1.52;;;9.20;99.90;;;;;;5017093;28;20025;-75
2021/05/04 07:28:18;;;;;;;2.00;1.30;;;9.10;99.90;;;;;;5018299;28;20022;-74
2021/05/04 07:30:46;;;;;;;2.58;1.38;;;9.00;99.90;;;;;;5018172;28;20045;-75
2021/05/04 07:33:14;;;;;;;3.22;1.42;;;8.80;99.90;;;;;;5018379;28;20201;-73
2021/05/04 07:35:42;;;;;;;2.05;1.25;;;8.80;99.90;;;;;;5017843;28;20026;-72
2021/05/04 07:38:10;;;;;;;3.83;1.90;;;8.80;99.90;;;;;;5017314;28;20029;-73
2021/05/04 07:40:38;;;;;;;4.47;1.67;;;8.70;99.90;;;;;;5016758;28;20079;-73
2021/05/04 07:43:05;;;;;;;3.53;1.52;;;8.70;99.90;;;;;;5016716;28;20453;-73
2021/05/04 07:45:34;;;;;;;5.07;1.50;;;8.60;99.90;;;;;;5016815;28;20022;-73
2021/05/04 07:48:03;;;;;;;2.67;1.70;;;8.60;99.90;;;;;;5015824;28;20018;-73
2021/05/04 07:50:33;;;;;;;1.58;1.02;;;8.60;99.90;;;;;;5016678;28;20052;-73
2021/05/04 07:53:00;;;;;;;4.20;1.70;;;8.50;99.90;;;;;;5016707;28;20026;-71
2021/05/04 07:55:28;;;;;;;1.83;1.10;;;8.40;99.90;;;;;;5017220;28;20112;-74
2021/05/04 07:57:56;;;;;;;2.58;1.30;;;8.50;99.90;;;;;;5016131;28;20029;-72
2021/05/04 08:00:23;;;;;;;3.45;1.30;;;8.50;99.90;;;;;;5017072;28;20057;-72
2021/05/04 08:02:53;;;;;;;2.03;1.10;;;8.60;99.90;;;;;;5016539;28;20077;-72
2021/05/04 08:05:20;;;;;;;4.03;1.25;;;8.80;99.90;;;;;;5016214;28;20022;-72
2021/05/04 08:07:48;;;;;;;2.72;1.27;;;9.10;99.90;;;;;;5017447;28;20105;-72
2021/05/04 08:10:15;;;;;;;3.10;1.63;;;9.40;99.90;;;;;;5017625;28;20072;-71
2021/05/04 08:12:42;;;;;;;3.08;1.10;;;9.70;99.90;;;;;;5017920;28;20025;-71
2021/05/04 08:15:17;;;;;;;2.75;1.13;;;10.10;99.90;;;;;;5017912;28;20030;-70
2021/05/04 08:17:54;;;;;;;2.10;0.90;;;10.40;99.90;;;;;;5047721;28;20052;-71
2021/05/04 08:20:26;;;;;;;1.58;0.80;;;10.50;99.90;;;;;;5056235;28;20029;-70
2021/05/04 08:22:55;;;;;;;1.38;0.65;;;10.60;99.90;;;;;;5056375;28;20021;-71
2021/05/04 08:25:23;;;;;;;1.60;0.90;;;10.60;99.90;;;;;;5038660;28;20472;-71
2021/05/04 08:27:52;;;;;;;2.83;0.90;;;10.50;99.90;;;;;;5056144;28;20017;-72
2021/05/04 08:30:20;;;;;;;1.30;0.55;;;10.40;99.90;;;;;;5056414;28;20025;-74
2021/05/04 08:32:49;;;;;;;2.28;0.70;;;10.40;99.90;;;;;;5056319;28;20036;-71
2021/05/04 08:35:17;;;;;;;2.67;0.73;;;10.40;99.90;;;;;;5056147;28;20086;-72
2021/05/04 08:37:45;;;;;;;1.88;0.88;;;10.50;99.90;;;;;;5038287;28;20028;-72
2021/05/04 08:40:14;;;;;;;2.45;0.60;;;10.60;99.90;;;;;;5056986;28;20025;-71
2021/05/04 08:42:42;;;;;;;1.23;0.60;;;10.80;99.90;;;;;;5056770;28;20071;-72
2021/05/04 08:45:10;;;;;;;1.35;0.60;;;11.00;99.90;;;;;;5057454;28;20017;-72
2021/05/04 08:47:38;;;;;;;3.40;0.80;;;11.30;99.90;;;;;;5056777;28;20025;-72
2021/05/04 08:50:07;;;;;;;3.30;0.60;;;11.50;99.90;;;;;;5056775;28;20372;-72
2021/05/04 08:52:35;;;;;;;3.17;0.55;;;11.70;99.90;;;;;;5038923;28;20116;-73
2021/05/04 08:55:04;;;;;;;2.15;0.50;;;11.70;99.40;;;;;;5057114;28;20044;-72
2021/05/04 08:57:36;;;;;;;0.63;0.40;;;11.60;99.10;;;;;;5056657;28;20036;-72
2021/05/04 09:00:07;;;;;;;1.33;0.90;;;11.40;98.40;;;;;;5055769;28;20029;-72
2021/05/04 09:03:02;;;;;;;1.08;0.40;;;11.20;99.20;;;;;;5055791;28;20046;-73
2021/05/04 09:06:09;;;;;;;1.60;0.50;;;11.10;98.90;;;;;;5055924;28;20032;-73
2021/05/04 09:14:28;;;;;;;1.70;0.35;;;10.80;99.90;;;;;;5059736;28;20021;-71
2021/05/04 09:22:39;;;;;;;1.95;0.43;;;11.00;99.90;;;;;;5060223;28;20071;-71
2021/05/04 09:25:28;;;;;;;2.67;0.55;;;11.30;99.60;;;;;;5060048;28;20115;-71
2021/05/04 09:28:07;;;;;;;2.38;0.50;;;11.50;99.30;;;;;;5059802;28;20405;-71
2021/05/04 09:30:35;;;;;;;0.98;0.50;;;11.80;99.20;;;;;;5060043;28;20032;-72
2021/05/04 09:33:11;;;;;;;1.13;0.35;;;12.00;97.90;;;;;;5060301;28;20104;-72
2021/05/04 09:35:38;;;;;;;2.90;0.50;;;12.20;97.80;;;;;;5059940;28;20032;-71
2021/05/04 09:38:14;;;;;;;1.48;0.60;;;12.30;97.90;;;;;;5059758;28;20055;-73
2021/05/04 09:40:43;;;;;;;0.93;0.43;;;12.40;97.20;;;;;;5059114;28;20044;-72
2021/05/04 09:43:23;;;;;;;1.05;0.50;;;12.50;96.20;;;;;;5058773;28;20028;-72
2021/05/04 09:45:56;;;;;;;3.08;0.63;;;12.50;96.30;;;;;;5058911;28;20025;-74
2021/05/04 09:48:33;;;;;;;1.20;0.57;;;12.50;97.00;;;;;;5059426;28;20314;-71
2021/05/04 09:51:04;;;;;;;0.85;0.45;;;12.40;96.20;;;;;;5058750;28;20080;-70
2021/05/04 09:56:13;;;;;;;1.52;0.55;;;12.40;96.20;;;;;;5058519;28;20096;-71
2021/05/04 09:58:49;;;;;;;1.08;0.45;;;12.50;96.70;;;;;;5058993;28;20024;-71
2021/05/04 10:01:19;;;;;;;0.90;0.40;;;12.60;95.90;;;;;;5058931;28;20309;-71
2021/05/04 10:03:51;;;;;;;0.70;0.40;;;12.70;95.20;;;;;;5059457;28;20427;-71
2021/05/04 10:06:19;;;;;;;1.30;0.50;;;12.80;95.00;;;;;;5059451;28;20317;-72
2021/05/04 10:08:51;;;;;;;0.70;0.40;;;13.00;94.30;;;;;;5059297;28;20028;-73
2021/05/04 10:11:24;;;;;;;2.63;0.88;;;13.10;94.70;;;;;;5059271;28;20413;-72
2021/05/04 10:13:56;;;;;;;0.77;0.40;;;13.10;93.50;;;;;;5059388;28;20040;-72
2021/05/04 10:16:29;;;;;;;3.90;0.75;;;13.00;93.50;;;;;;5058934;28;20064;-74
2021/05/04 10:22:18;;;;;;;1.50;0.40;;;12.90;92.70;;;;;;5057509;28;20405;-74
2021/05/04 10:24:48;;;;;;;1.67;0.50;;;12.60;93.50;;;;;;5058208;28;20024;-74
2021/05/04 10:27:22;;;;;;;2.63;0.40;;;12.30;94.00;;;;;;5057918;28;20401;-74
2021/05/04 10:29:52;;;;;;;0.98;0.30;;;12.20;94.50;;;;;;5058267;28;20035;-73
2021/05/04 10:32:49;;;;;;;1.10;0.50;;;12.10;93.90;;;;;;5057805;28;20025;-74
2021/05/04 10:35:32;;;;;;;2.38;0.35;;;12.00;93.80;;;;;;5057725;28;20104;-73
2021/05/04 10:38:09;;;;;;;0.85;0.30;;;12.10;94.10;;;;;;5057493;28;20021;-73
2021/05/04 10:40:39;;;;;;;0.88;0.52;;;12.20;93.30;;;;;;5057803;28;20078;-73
2021/05/04 10:43:28;;;;;;;1.40;0.50;;;12.30;93.60;;;;;;5058221;28;20017;-73
2021/05/04 10:46:00;;;;;;;0.73;0.40;;;12.40;94.20;;;;;;5058700;28;20021;-88
2021/05/04 10:48:38;;;;;;;0.52;0.30;;;12.40;93.10;;;;;;5058127;28;20050;-74
2021/05/04 10:51:17;;;;;;;0.95;0.47;;;12.30;93.40;;;;;;5058480;28;20052;-74
2021/05/04 10:54:05;;;;;;;1.63;1.00;;;12.30;93.80;;;;;;5058167;28;20025;-73
2021/05/04 10:56:44;;;;;;;1.00;0.43;;;12.20;94.70;;;;;;5058563;28;20025;-73
2021/05/04 10:59:15;;;;;;;1.52;0.40;;;12.10;95.50;;;;;;5058562;28;20100;-73
2021/05/04 11:02:11;;;;;;;1.08;0.60;;;11.90;95.30;;;;;;5057235;28;20028;-73
2021/05/04 11:04:45;;;;;;;0.60;0.32;;;11.60;97.30;;;;;;5057376;28;20025;-73
2021/05/04 11:07:13;;;;;;;0.88;0.55;;;11.40;98.90;;;;;;5057485;28;20021;-73
2021/05/04 11:10:01;;;;;;;1.42;0.50;;;11.00;99.10;;;;;;5056996;28;20024;-73
2021/05/04 11:12:39;;;;;;;0.95;0.45;;;10.70;99.90;;;;;;5056815;28;20013;-72
2021/05/04 11:15:27;;;;;;;0.57;0.40;;;10.50;99.90;;;;;;5057056;28;20096;-72
2021/05/04 11:17:55;;;;;;;1.25;0.55;;;10.40;99.90;;;;;;5056588;28;20047;-73
2021/05/04 11:20:39;;;;;;;1.08;0.45;;;10.30;99.90;;;;;;5056748;28;20084;-73
2021/05/04 11:23:09;;;;;;;0.82;0.55;;;10.40;99.90;;;;;;5057384;28;20409;-73
2021/05/04 11:25:43;;;;;;;1.25;0.70;;;10.40;99.90;;;;;;5057840;28;20021;-73
2021/05/04 11:28:11;;;;;;;1.70;0.73;;;10.30;99.90;;;;;;5058149;28;20017;-73
2021/05/04 11:30:42;;;;;;;1.45;0.80;;;10.30;99.90;;;;;;5057650;28;20029;-73
2021/05/04 11:33:33;;;;;;;1.45;0.88;;;10.20;99.90;;;;;;5038916;28;20059;-73
2021/05/04 11:36:01;;;;;;;1.92;0.73;;;10.20;99.90;;;;;;5035208;28;20037;-73
2021/05/04 11:38:29;;;;;;;2.63;0.90;;;10.30;99.90;;;;;;5039771;28;20025;-73
2021/05/04 11:40:57;;;;;;;0.90;0.60;;;10.30;99.90;;;;;;5057136;28;20421;-73
2021/05/04 11:43:27;;;;;;;1.65;0.80;;;10.40;99.90;;;;;;5056990;28;20056;-73
2021/05/04 11:45:55;;;;;;;2.50;0.60;;;10.50;99.90;;;;;;5056707;28;20028;-73
2021/05/04 11:48:29;;;;;;;1.70;0.90;;;10.50;99.90;;;;;;5056735;28;20462;-73
2021/05/04 11:50:56;;;;;;;2.65;0.85;;;10.80;99.90;;;;;;5056354;28;20412;-73
2021/05/04 11:53:24;;;;;;;4.55;1.13;;;11.00;99.90;;;;;;5056297;28;20436;-73
2021/05/04 11:55:55;;;;;;;3.13;0.95;;;11.20;99.90;;;;;;5056397;28;20029;-73
2021/05/04 11:58:29;;;;;;;1.42;0.80;;;11.30;99.90;;;;;;5056553;28;20025;-73
2021/05/04 12:01:03;;;;;;;1.00;0.60;;;11.30;99.90;;;;;;5038754;28;20029;-73
2021/05/04 12:03:32;;;;;;;0.85;0.50;;;11.30;99.90;;;;;;5057312;28;20049;-73
2021/05/04 12:06:01;;;;;;;1.58;0.60;;;11.40;99.90;;;;;;5057383;28;20103;-73
2021/05/04 12:08:29;;;;;;;1.85;0.80;;;11.40;99.90;;;;;;5057864;28;20100;-74
2021/05/04 12:10:56;;;;;;;2.13;0.75;;;11.50;99.90;;;;;;5057464;28;20056;-73
2021/05/04 12:13:27;;;;;;;1.58;0.88;;;11.50;99.90;;;;;;5057565;28;20032;-73
2021/05/04 12:15:57;;;;;;;1.58;0.68;;;11.70;99.90;;;;;;5057507;28;20029;-72
2021/05/04 12:18:33;;;;;;;1.00;0.60;;;11.80;99.90;;;;;;5039413;28;20033;-73
2021/05/04 12:21:04;;;;;;;3.72;0.68;;;11.90;99.90;;;;;;5056773;28;20371;-71
2021/05/04 12:23:34;;;;;;;1.63;0.75;;;11.90;99.90;;;;;;5056605;28;20032;-78
2021/05/04 12:26:06;;;;;;;1.42;0.60;;;11.70;99.90;;;;;;5056198;28;20017;-71
2021/05/04 12:28:49;;;;;;;2.15;0.90;;;11.60;99.90;;;;;;5055743;28;20048;-71
2021/05/04 12:31:21;;;;;;;3.97;0.90;;;11.30;99.90;;;;;;5055858;28;20053;-71
2021/05/04 12:33:53;;;;;;;6.78;0.82;;;11.30;99.90;;;;;;5055938;28;20031;-70
2021/05/04 12:36:42;;;;;;;2.03;0.77;;;11.40;99.90;;;;;;5056089;28;20101;-70
2021/05/04 12:39:33;;;;;;;2.05;0.93;;;11.70;99.90;;;;;;5055733;28;20025;-71
2021/05/04 12:42:20;;;;;;;3.60;1.00;;;12.10;99.90;;;;;;5056004;28;20039;-71
2021/05/04 12:44:48;;;;;;;6.05;1.00;;;12.60;99.90;;;;;;5058278;28;20021;-71
2021/05/04 12:47:18;;;;;;;6.95;1.60;;;13.10;99.90;;;;;;5060688;28;20444;-71
2021/05/04 12:49:47;;;;;;;1.75;0.70;;;13.70;99.90;;;;;;5061140;28;20025;-70
2021/05/04 12:52:17;;;;;;;2.85;0.90;;;14.30;99.30;;;;;;5060456;28;20029;-71
2021/05/04 12:54:46;;;;;;;6.15;1.52;;;14.90;96.80;;;;;;5061011;28;20021;-71
2021/05/04 12:57:26;;;;;;;2.53;1.23;;;15.50;95.00;;;;;;5060614;28;20021;-71
2021/05/04 13:00:12;;;;;;;3.05;0.95;;;16.00;92.80;;;;;;5060808;28;20025;-71
2021/05/04 13:02:41;;;;;;;6.22;1.52;;;16.30;91.50;;;;;;5060034;28;20017;-71
2021/05/04 13:05:29;;;;;;;3.33;1.20;;;16.20;88.60;;;;;;5059881;28;20082;-70
2021/05/04 13:08:07;;;;;;;5.72;1.23;;;15.60;89.90;;;;;;5058086;28;20017;-71
2021/05/04 13:10:57;;;;;;;7.65;1.60;;;15.00;89.10;;;;;;5059731;28;20406;-69
2021/05/04 13:13:55;;;;;;;9.63;1.83;;;14.40;86.70;;;;;;5058881;28;20029;-70
2021/05/04 13:30:38;;;;;;;5.85;1.13;;;12.30;93.60;;;;;;5060181;28;20031;-68
2021/05/04 13:33:08;;;;;;;9.27;1.20;;;10.90;94.30;;;;;;5059981;28;20116;-69
2021/05/04 13:35:52;;;;;;;5.00;1.60;;;9.30;99.40;;;;;;5060019;28;20435;-71
2021/05/04 13:49:23;;;;;;;3.08;1.08;;;10.30;99.90;;;;;;5058599;28;20448;-70